Flight Track Log - Related Links

Times and Time Zones

All times are in EDT time to prevent confusion due to time zone crossing. See the SWA2336 flight status page for this flight to view local times or setup timezone preferences in your user account.


Time Position Orientation Groundspeed Altitude Reporting Facility
EDT Latitude Longitude Course Direction KTS MPH feet Rate Location/Type
Sat 11:04:20 AM 28.0333 -82.5333 360° North 189 217 2,400  Level Tampa TRACON
Sat 11:06:19 AM 28.1661 -82.5300 North 264 304 7,700 3,084 Climbing Jacksonville Center
Sat 11:07:19 AM 28.2392 -82.5508 346° North 264 304 11,600 3,800 Climbing Jacksonville Center
Sat 11:08:19 AM 28.3164 -82.5458 North 269 310 15,300 2,400 Climbing Jacksonville Center
Sat 11:09:19 AM 28.4019 -82.5764 343° North 288 331 16,400 2,050 Climbing Jacksonville Center
Sat 11:10:19 AM 28.5003 -82.6139 341° North 328 377 19,400 2,800 Climbing Jacksonville Center
Sat 11:11:19 AM 28.6025 -82.6561 340° North 367 422 22,000 2,600 Climbing Jacksonville Center
Sat 11:12:19 AM 28.7092 -82.6961 342° North 389 448 24,600 2,450 Climbing Jacksonville Center
Sat 11:13:19 AM 28.8217 -82.7147 352° North 400 460 26,900 2,150 Climbing Jacksonville Center
Sat 11:14:19 AM 28.9386 -82.7194 358° North 411 473 28,900 1,550 Climbing Jacksonville Center
Sat 11:15:19 AM 29.0597 -82.7264 357° North 421 484 30,000 800 Climbing Jacksonville Center
Sat 11:16:19 AM 29.1808 -82.6928 14° North 434 499 30,500 1,250 Climbing Jacksonville Center
Sat 11:17:19 AM 29.3017 -82.6592 14° North 439 505 32,500 1,750 Climbing Jacksonville Center
Sat 11:18:19 AM 29.4250 -82.6494 North 445 512 34,000 1,650 Climbing Jacksonville Center
Sat 11:19:19 AM 29.5461 -82.6919 343° North 412 474 35,800 1,350 Climbing Jacksonville Center
Sat 11:20:19 AM 29.6567 -82.7228 346° North 399 459 36,700 950 Climbing Jacksonville Center
Sat 11:21:19 AM 29.7675 -82.7561 345° North 408 470 37,700 1,050 Climbing Jacksonville Center
Sat 11:22:19 AM 29.8822 -82.7919 345° North 415 478 38,800 800 Climbing Jacksonville Center
Sat 11:23:19 AM 29.9972 -82.8278 345° North 420 483 39,300 600 Climbing Jacksonville Center
Sat 11:24:19 AM 30.1183 -82.8614 347° North 426 490 40,000 350 Climbing Jacksonville Center
Sat 11:25:19 AM 30.2372 -82.8975 345° North 432 497 40,000  Level Jacksonville Center
Sat 11:26:19 AM 30.3542 -82.9333 345° North 437 503 40,000  Level Jacksonville Center
Sat 11:27:19 AM 30.4753 -82.9697 345° North 437 503 40,000  Level Jacksonville Center
Sat 11:28:19 AM 30.5942 -83.0061 345° North 437 503 40,000  Level Jacksonville Center
Sat 11:29:19 AM 30.7133 -83.0447 344° North 437 503 40,000  Level Jacksonville Center
Sat 11:30:19 AM 30.8300 -83.0836 344° North 437 503 40,000  Level Jacksonville Center
Sat 11:31:19 AM 30.9367 -83.1178 345° North 437 503 40,000  Level Jacksonville Center
Sat 11:32:19 AM 31.0700 -83.1594 345° North 437 503 40,000  Level Jacksonville Center
Sat 11:33:19 AM 31.1639 -83.1889 345° North 442 509 40,000  Level Jacksonville Center
Sat 11:34:19 AM 31.3058 -83.2331 345° North 442 509 40,000  Level Jacksonville Center
Sat 11:35:19 AM 31.4247 -83.2700 345° North 442 509 40,000  Level Jacksonville Center
Sat 11:37:01 AM 31.6153 -83.3317 345° North 439 505 40,000  Level Atlanta Center
Sat 11:38:01 AM 31.7322 -83.3697 345° North 439 505 40,000  Level Atlanta Center
Sat 11:39:01 AM 31.8514 -83.4081 345° North 439 505 40,000  Level Atlanta Center
Sat 11:40:01 AM 31.9728 -83.4464 345° North 439 505 40,000  Level Atlanta Center
Sat 11:41:01 AM 32.0919 -83.4872 344° North 439 505 40,000  Level Atlanta Center
Sat 11:42:01 AM 32.2131 -83.5283 344° North 439 505 40,000  Level Atlanta Center
Sat 11:43:01 AM 32.3322 -83.5669 345° North 439 505 40,000  Level Atlanta Center
Sat 11:44:01 AM 32.4533 -83.6031 346° North 439 505 40,000  Level Atlanta Center
Sat 11:45:01 AM 32.5725 -83.6444 344° North 439 505 40,000  Level Atlanta Center
Sat 11:46:01 AM 32.6936 -83.6833 345° North 439 505 40,000  Level Atlanta Center
Sat 11:47:01 AM 32.8128 -83.7225 345° North 439 505 40,000  Level Atlanta Center
Sat 11:48:01 AM 32.9319 -83.7592 346° North 439 505 40,000  Level Atlanta Center
Sat 11:49:01 AM 33.0508 -83.8033 343° North 439 505 40,000  Level Atlanta Center
Sat 11:50:01 AM 33.1700 -83.8378 346° North 439 505 40,000  Level Atlanta Center
Sat 11:51:01 AM 33.2911 -83.8797 344° North 439 505 40,000  Level Atlanta Center
Sat 11:52:01 AM 33.4247 -83.9244 344° North 439 505 40,000  Level Atlanta Center
Sat 11:53:01 AM 33.5458 -83.9639 345° North 445 512 40,000  Level Atlanta Center
Sat 11:54:01 AM 33.6669 -84.0064 344° North 445 512 40,000  Level Atlanta Center
Sat 11:55:01 AM 33.7881 -84.0439 346° North 445 512 40,000  Level Atlanta Center
Sat 11:56:01 AM 33.9092 -84.0839 345° North 445 512 40,000  Level Atlanta Center
Sat 11:57:01 AM 34.0300 -84.1239 345° North 445 512 40,000  Level Atlanta Center
Sat 11:58:01 AM 34.1511 -84.1642 345° North 445 512 40,000  Level Atlanta Center
Sat 11:59:01 AM 34.2722 -84.2072 344° North 445 512 40,000  Level Atlanta Center
Sat 12:00:01 PM 34.3911 -84.2478 344° North 445 512 40,000  Level Atlanta Center
Sat 12:01:01 PM 34.5119 -84.2883 345° North 445 512 40,000  Level Atlanta Center
Sat 12:02:01 PM 34.6331 -84.3317 344° North 450 518 40,000  Level Atlanta Center
Sat 12:03:01 PM 34.7581 -84.3750 344° North 458 527 40,000  Level Atlanta Center
Sat 12:04:01 PM 34.8811 -84.4161 345° North 458 527 40,000  Level Atlanta Center
Sat 12:05:01 PM 34.9872 -84.4572 342° North 450 518 40,000  Level Atlanta Center
Sat 12:06:01 PM 35.1125 -84.4983 345° North 450 518 40,000  Level Atlanta Center
Sat 12:07:01 PM 35.2375 -84.5422 344° North 456 525 40,000  Level Atlanta Center
Sat 12:08:01 PM 35.3603 -84.5864 344° North 456 525 40,000  Level Atlanta Center
Sat 12:09:01 PM 35.4833 -84.6278 345° North 456 525 40,000  Level Atlanta Center
Sat 12:10:01 PM 35.6081 -84.6697 345° North 456 525 40,000  Level Atlanta Center
Sat 12:11:01 PM 35.7331 -84.7142 344° North 456 525 40,000  Level Atlanta Center
Sat 12:12:55 PM 35.9775 -84.7994 344° North 465 535 40,000  Level Indianapolis Center
Sat 12:13:57 PM 36.0997 -84.8439 344° North 464 534 40,000  Level Indianapolis Center
Sat 12:14:58 PM 36.2231 -84.8883 344° North 465 535 40,000  Level Indianapolis Center
Sat 12:16:00 PM 36.3508 -84.9178 349° North 465 535 40,000 -244 Level Indianapolis Center
Sat 12:17:01 PM 36.4800 -84.9381 353° North 467 537 39,500 -689 Descending Indianapolis Center
Sat 12:18:02 PM 36.6117 -84.9581 353° North 474 545 38,600 -1,024 Descending Indianapolis Center
Sat 12:19:04 PM 36.7739 -84.9842 353° North 491 565 37,400 -1,024 Descending Indianapolis Center
Sat 12:20:05 PM 36.9083 -85.0125 350° North 491 565 36,500 -934 Descending Indianapolis Center
Sat 12:21:06 PM 37.0425 -85.0394 351° North 488 562 35,500 -927 Descending Indianapolis Center
Sat 12:22:08 PM 37.1672 -85.0692 349° North 491 565 34,600 -878 Descending Indianapolis Center
Sat 12:23:09 PM 37.2969 -85.1217 342° North 488 562 33,700 -1,033 Descending Indianapolis Center
Sat 12:24:10 PM 37.4497 -85.1822 343° North 491 565 32,500 -829 Descending Indianapolis Center
Sat 12:25:12 PM 37.5831 -85.2339 343° North 497 572 32,000 -244 Descending Indianapolis Center
Sat 12:26:13 PM 37.7133 -85.2867 342° North 493 567 32,000  Level Indianapolis Center
Sat 12:27:14 PM 37.8439 -85.3381 343° North 490 564 32,000  Level Indianapolis Center
Sat 12:28:16 PM 37.9597 -85.3839 343° North 494 568 32,000  Level Indianapolis Center
Sat 12:29:17 PM 38.1153 -85.4450 343° North 487 560 32,000 -689 Level Indianapolis Center
Sat 12:30:18 PM 38.2467 -85.4975 343° North 491 565 30,600 -1,902 Descending Indianapolis Center
Sat 12:31:20 PM 38.3733 -85.5486 342° North 480 552 28,100 -2,390 Descending Indianapolis Center
Sat 12:32:21 PM 38.4986 -85.6003 342° North 473 544 25,700 -2,262 Descending Indianapolis Center
Sat 12:33:22 PM 38.6189 -85.6433 344° North 455 524 23,500 -2,213 Descending Indianapolis Center
Sat 12:34:23 PM 38.7414 -85.6633 353° North 433 498 21,200 -2,341 Descending Indianapolis Center
Sat 12:35:25 PM 38.8608 -85.6856 352° North 433 498 18,700 -2,439 Descending Indianapolis Center
Sat 12:36:26 PM 38.9781 -85.7058 352° North 428 493 16,200 -2,293 Descending Indianapolis Center
Sat 12:37:28 PM 39.0931 -85.7256 352° North 421 484 14,000 -1,561 Descending Indianapolis Center
Sat 12:38:29 PM 39.1997 -85.7458 352° North 399 459 13,000 -1,220 Descending Indianapolis Center
Sat 12:39:31 PM 39.3169 -85.7767 348° North 367 422 11,500 -1,463 Descending Indianapolis Center
Sat 12:40:32 PM 39.3922 -85.8622 319° Northwest 363 418 10,000 -738 Descending Indianapolis Center
Sat 12:41:33 PM 39.4592 -85.9419 317° Northwest 335 386 10,000  Level Indianapolis Center
Sat 12:42:34 PM 39.5231 -86.0175 318° Northwest 318 366 10,000 -634 Level Indianapolis Center
Sat 12:43:36 PM 39.5844 -86.0900 318° Northwest 306 352 8,700 -1,366 Descending Indianapolis Center
Sat 12:44:37 PM 39.6408 -86.1589 317° Northwest 289 333 7,200 -1,187 Descending Indianapolis Center
Sat 12:45:07 PM 39.6500 -86.2167 282° West 265 305 6,900 -1,063 Descending Indianapolis TRACON
Sat 12:46:13 PM 39.6000 -86.2833 226° Southwest 240 276 5,500 -1,097 Descending Indianapolis TRACON
Sat 12:46:40 PM 39.5806 -86.3042 220° Southwest 248 285 5,200 -1,281 Descending Indianapolis Center
Sat 12:47:42 PM 39.5931 -86.3744 283° West 250 288 3,600 -1,171 Descending Indianapolis Center
Sat 12:48:43 PM 39.6397 -86.4039 334° Northwest 224 258 2,800 -934 Descending Indianapolis Center
Sat 12:49:44 PM 39.6733 -86.3628 43° Northeast 163 188 1,700 -1,000 Descending Indianapolis Center
Sat 12:50:13 PM 39.6833 -86.3500 45° Northeast 126 145 1,300 -439 Descending Indianapolis TRACON
Sat 12:51:47 PM 39.7267 -86.2950 44° Northeast 143 165 800 -319 Descending Indianapolis Center
Sat 12:53:00 PM 39.7173 -86.2947 142° Southeast  Level Estimated

Login

Don't have an account? Register now (free) for customized features, flight alerts, and more!